createdAt,value
2019-04-23T00:02:30.172Z,80.60
2019-04-23T00:05:59.463Z,80.81
2019-04-23T00:12:11.879Z,79.87
2019-04-23T00:15:24.002Z,79.65
2019-04-23T00:18:37.719Z,79.07
2019-04-23T00:22:29.042Z,78.89
2019-04-23T00:25:49.737Z,78.50
2019-04-23T00:28:58.879Z,78.62
2019-04-23T00:32:21.780Z,78.88
2019-04-23T00:35:38.950Z,78.39
2019-04-23T00:38:45.490Z,78.24
2019-04-23T00:42:16.347Z,78.26
2019-04-23T00:45:44.602Z,77.68
2019-04-23T00:52:02.439Z,77.30
2019-04-23T00:55:12.904Z,77.15
2019-04-23T00:58:55.208Z,77.40
2019-04-23T01:02:01.847Z,77.59
2019-04-23T01:05:18.319Z,77.49
2019-04-23T01:11:48.198Z,76.50
2019-04-23T01:15:02.202Z,76.23
2019-04-23T01:18:19.082Z,75.83
2019-04-23T01:25:40.751Z,74.82
2019-04-23T01:32:34.875Z,73.93
2019-04-23T01:36:09.689Z,73.63
2019-04-23T01:39:09.347Z,73.19
2019-04-23T01:42:22.450Z,73.10
2019-04-23T01:52:12.837Z,72.61
2019-04-23T01:55:38.408Z,72.54
2019-04-23T02:02:12.309Z,72.63
2019-04-23T02:05:29.124Z,72.67
2019-04-23T02:08:47.092Z,72.45
2019-04-23T02:11:59.058Z,72.63
2019-04-23T02:18:22.686Z,73.17
2019-04-23T02:21:39.555Z,73.12
2019-04-23T02:25:35.259Z,73.44
2019-04-23T02:28:42.015Z,73.47
2019-04-23T02:38:45.602Z,73.19
2019-04-23T02:41:54.418Z,73.31
2019-04-23T02:44:56.338Z,73.68
2019-04-23T02:48:10.493Z,73.50
2019-04-23T02:51:15.406Z,73.80
2019-04-23T02:54:44.908Z,74.13
2019-04-23T03:01:39.696Z,74.47
2019-04-23T03:05:32.926Z,75.03
2019-04-23T03:09:36.787Z,74.59
2019-04-23T03:12:48.577Z,74.86
2019-04-23T03:16:38.462Z,74.97
2019-04-23T03:20:15.026Z,74.80
2019-04-23T03:26:51.550Z,74.67
2019-04-23T03:30:16.362Z,74.65
2019-04-23T03:40:59.452Z,74.75
2019-04-23T03:44:16.631Z,75.39
2019-04-23T03:47:32.866Z,75.04
2019-04-23T03:50:53.091Z,75.01
2019-04-23T03:57:24.532Z,75.41
2019-04-23T04:00:47.982Z,75.31
2019-04-23T04:10:25.327Z,75.35
2019-04-23T04:14:12.202Z,75.80
2019-04-23T04:17:14.414Z,76.28
2019-04-23T04:20:46.927Z,76.14
2019-04-23T04:24:11.278Z,75.78
2019-04-23T04:30:22.181Z,75.41
2019-04-23T04:43:06.767Z,75.79
2019-04-23T04:49:15.116Z,75.71
2019-04-23T05:02:15.582Z,75.17
2019-04-23T05:08:28.181Z,74.84
2019-04-23T05:11:47.786Z,74.44
2019-04-23T05:14:54.568Z,74.89
2019-04-23T05:21:21.487Z,74.73
2019-04-23T05:27:47.180Z,74.96
2019-04-23T05:30:52.183Z,74.59
2019-04-23T05:33:59.975Z,74.60
2019-04-23T05:37:13.016Z,74.52
2019-04-23T05:40:30.408Z,74.15
2019-04-23T05:49:51.750Z,74.12
2019-04-23T05:53:02.494Z,73.74
2019-04-23T05:56:06.556Z,73.15
2019-04-23T06:02:29.707Z,72.88
2019-04-23T06:05:36.276Z,72.32
2019-04-23T06:08:49.321Z,72.18
2019-04-23T06:14:57.482Z,71.15
2019-04-23T06:18:12.488Z,71.23
2019-04-23T06:21:15.292Z,70.74
2019-04-23T06:27:32.397Z,70.96
2019-04-23T06:33:46.837Z,70.73
2019-04-23T06:36:57.200Z,70.06
2019-04-23T06:43:30.296Z,69.06
2019-04-23T06:46:40.107Z,69.05
2019-04-23T06:49:44.244Z,68.69
2019-04-23T06:52:45.621Z,68.72
2019-04-23T06:55:55.797Z,68.93
2019-04-23T06:59:05.887Z,68.87
2019-04-23T07:02:22.326Z,68.17
2019-04-23T07:05:24.071Z,67.92
2019-04-23T07:08:44.387Z,67.99
2019-04-23T07:11:51.250Z,68.05
2019-04-23T07:18:00.021Z,68.32
2019-04-23T07:21:07.893Z,67.53
2019-04-23T07:27:13.201Z,68.38
2019-04-23T07:30:31.583Z,68.50
2019-04-23T07:33:28.083Z,69.01
2019-04-23T07:36:34.224Z,68.06
2019-04-23T07:40:23.114Z,68.61
2019-04-23T07:43:30.763Z,68.00
2019-04-23T07:47:07.356Z,67.91
2019-04-23T07:50:09.819Z,67.65
2019-04-23T07:53:07.134Z,67.95
2019-04-23T07:56:07.692Z,66.96
2019-04-23T07:59:18.960Z,67.35
2019-04-23T08:02:25.933Z,67.29
2019-04-23T08:05:26.526Z,67.45
2019-04-23T08:08:33.317Z,67.36
2019-04-23T08:11:40.080Z,67.08
2019-04-23T08:15:04.287Z,66.38
2019-04-23T08:18:06.868Z,66.30
2019-04-23T08:21:15.158Z,66.42
2019-04-23T08:24:50.595Z,66.34
2019-04-23T08:27:59.393Z,65.05
2019-04-23T08:31:03.614Z,64.62
2019-04-23T08:34:31.170Z,63.89
2019-04-23T08:37:24.738Z,63.22
2019-04-23T08:40:25.732Z,62.67
2019-04-23T08:49:59.321Z,60.69
2019-04-23T08:53:22.675Z,60.18
2019-04-23T08:56:23.805Z,59.73
2019-04-23T08:59:33.205Z,59.05
2019-04-23T09:02:50.124Z,58.33
2019-04-23T09:08:50.263Z,57.98
2019-04-23T09:12:03.279Z,57.16
2019-04-23T09:15:07.800Z,56.99
2019-04-23T09:18:16.660Z,56.71
2019-04-23T09:21:25.295Z,56.74
2019-04-23T09:24:25.873Z,57.32
2019-04-23T09:27:37.939Z,56.38
2019-04-23T09:30:40.409Z,56.02
2019-04-23T09:37:15.626Z,54.91
2019-04-23T09:41:03.019Z,54.74
2019-04-23T09:44:14.494Z,54.96
2019-04-23T09:47:26.394Z,55.61
2019-04-23T09:53:29.683Z,55.91
2019-04-23T09:59:51.406Z,55.46
2019-04-23T10:02:47.319Z,55.58
2019-04-23T10:05:51.184Z,55.12
2019-04-23T10:09:01.738Z,56.01
2019-04-23T10:12:05.138Z,56.01
2019-04-23T10:15:18.594Z,56.21
2019-04-23T10:18:18.308Z,55.54
2019-04-23T10:21:23.841Z,55.86
2019-04-23T10:24:28.640Z,56.37
2019-04-23T10:27:36.880Z,56.22
2019-04-23T10:30:45.025Z,55.97
2019-04-23T10:33:50.497Z,55.81
2019-04-23T10:36:55.638Z,56.21
2019-04-23T10:40:04.927Z,56.21
2019-04-23T10:43:07.486Z,56.96
2019-04-23T10:46:53.609Z,56.96
2019-04-23T10:50:35.561Z,57.53
2019-04-23T10:56:27.205Z,57.53
2019-04-23T11:03:00.619Z,56.93
2019-04-23T11:05:58.981Z,57.70
2019-04-23T11:09:09.987Z,57.76
2019-04-23T11:12:23.734Z,57.93
2019-04-23T11:15:26.809Z,57.93
2019-04-23T11:18:38.327Z,57.46
2019-04-23T11:21:42.482Z,57.65
2019-04-23T11:24:52.234Z,57.27
2019-04-23T11:27:52.538Z,57.27
2019-04-23T11:30:54.832Z,57.85
2019-04-23T11:34:08.184Z,57.85
2019-04-23T11:37:27.589Z,58.11
2019-04-23T11:40:21.147Z,58.13
2019-04-23T11:43:29.095Z,57.53
2019-04-23T11:52:51.727Z,58.10
2019-04-23T11:58:59.785Z,58.60
2019-04-23T12:02:38.989Z,58.52
2019-04-23T12:06:25.111Z,58.52
2019-04-23T12:12:59.049Z,57.80
2019-04-23T12:16:02.182Z,58.26
2019-04-23T12:19:40.294Z,58.29
2019-04-23T12:22:22.213Z,57.78
2019-04-23T12:25:25.063Z,57.64
2019-04-23T12:31:40.057Z,57.12
2019-04-23T12:34:57.979Z,57.60
2019-04-23T12:38:03.334Z,57.03
2019-04-23T12:41:04.206Z,57.03
2019-04-23T12:44:16.198Z,57.11
2019-04-23T12:47:36.383Z,56.97
2019-04-23T12:56:48.176Z,57.14
2019-04-23T12:59:44.708Z,56.06
2019-04-23T13:02:52.403Z,55.83
2019-04-23T13:05:51.393Z,56.06
2019-04-23T13:09:01.438Z,56.48
2019-04-23T13:12:25.646Z,56.13
2019-04-23T13:21:52.198Z,56.25
2019-04-23T13:25:14.679Z,56.16
2019-04-23T13:28:27.970Z,56.39
2019-04-23T13:31:28.977Z,56.39
2019-04-23T13:34:37.651Z,56.20
2019-04-23T13:37:44.490Z,56.68
2019-04-23T13:40:50.526Z,56.25
2019-04-23T13:43:42.676Z,56.18
2019-04-23T13:47:02.938Z,55.86
2019-04-23T13:50:30.785Z,55.50
2019-04-23T13:53:34.383Z,56.01
2019-04-23T13:57:03.195Z,55.91
2019-04-23T14:02:42.523Z,56.30
2019-04-23T14:06:10.710Z,56.47
2019-04-23T14:09:12.888Z,55.70
2019-04-23T14:12:17.784Z,55.51
2019-04-23T14:15:39.219Z,54.91
2019-04-23T14:21:42.394Z,55.42
2019-04-23T14:28:05.618Z,55.39
2019-04-23T14:31:04.759Z,55.70
2019-04-23T14:40:29.664Z,54.62
2019-04-23T14:43:30.928Z,54.87
2019-04-23T14:46:45.467Z,54.18
2019-04-23T14:49:59.352Z,54.50
2019-04-23T14:52:57.155Z,54.41
2019-04-23T14:56:00.376Z,54.89
2019-04-23T15:05:28.397Z,54.48
2019-04-23T15:08:30.253Z,54.77
2019-04-23T15:14:47.916Z,53.96
2019-04-23T15:21:19.229Z,54.39
2019-04-23T15:27:59.965Z,53.55
2019-04-23T15:30:14.387Z,53.35
2019-04-23T15:33:41.342Z,52.51
2019-04-23T15:39:49.476Z,52.06
2019-04-23T15:46:04.866Z,51.80
2019-04-23T15:52:33.159Z,51.60
2019-04-23T15:55:24.671Z,51.11
2019-04-23T15:58:33.505Z,50.15
2019-04-23T16:04:11.292Z,50.47
2019-04-23T16:07:31.816Z,50.41
2019-04-23T16:10:54.521Z,49.05
2019-04-23T16:20:31.448Z,50.75
2019-04-23T16:23:26.470Z,50.44
2019-04-23T16:26:37.353Z,50.91
2019-04-23T16:29:55.054Z,50.35
2019-04-23T16:33:10.412Z,50.49
2019-04-23T16:36:12.609Z,50.39
2019-04-23T16:39:20.160Z,50.25
2019-04-23T16:42:23.728Z,50.66
2019-04-23T16:49:05.700Z,50.81
2019-04-23T16:51:38.859Z,50.99
2019-04-23T16:58:01.650Z,50.47
2019-04-23T17:04:13.667Z,51.50
2019-04-23T17:07:06.866Z,51.49
2019-04-23T17:10:19.196Z,51.58
2019-04-23T17:13:34.554Z,51.93
2019-04-23T17:16:34.705Z,52.39
2019-04-23T17:19:48.045Z,52.72
2019-04-23T17:23:00.569Z,53.75
2019-04-23T17:26:04.083Z,54.37
2019-04-23T17:29:06.654Z,54.88
2019-04-23T17:32:28.524Z,55.01
2019-04-23T17:36:15.148Z,55.84
2019-04-23T17:39:27.440Z,56.15
2019-04-23T17:42:48.297Z,57.09
2019-04-23T17:45:56.707Z,57.09
2019-04-23T17:49:13.197Z,57.73
2019-04-23T17:58:30.131Z,58.87
2019-04-23T18:02:08.270Z,59.02
2019-04-23T18:04:45.280Z,59.61
2019-04-23T18:07:54.550Z,59.61
2019-04-23T18:11:05.977Z,60.31
2019-04-23T18:14:02.213Z,60.31
2019-04-23T18:17:13.389Z,60.78
2019-04-23T18:20:24.782Z,61.34
2019-04-23T18:23:32.099Z,61.24
2019-04-23T18:26:46.357Z,61.63
2019-04-23T18:30:02.610Z,61.95
2019-04-23T18:33:51.297Z,61.87
2019-04-23T18:36:25.021Z,62.40
2019-04-23T18:39:36.408Z,62.59
2019-04-23T18:42:45.165Z,62.84
2019-04-23T18:45:59.189Z,62.99
2019-04-23T18:48:57.805Z,63.17
2019-04-23T18:55:37.690Z,63.61
2019-04-23T18:58:31.518Z,63.79
2019-04-23T19:02:02.132Z,64.31
2019-04-23T19:05:15.158Z,64.65
2019-04-23T19:15:17.052Z,65.08
2019-04-23T19:18:18.735Z,65.50
2019-04-23T19:24:31.620Z,65.70
2019-04-23T19:27:45.515Z,65.70
2019-04-23T19:31:16.451Z,65.54
2019-04-23T19:37:18.365Z,65.71
2019-04-23T19:40:28.283Z,66.28
2019-04-23T19:43:34.394Z,66.81
2019-04-23T19:46:49.114Z,67.16
2019-04-23T19:50:06.284Z,66.76
2019-04-23T19:59:25.690Z,66.74
2019-04-23T20:02:46.646Z,66.75
2019-04-23T20:05:47.211Z,66.93
2019-04-23T20:09:30.881Z,67.85
2019-04-23T20:12:05.999Z,67.85
2019-04-23T20:15:07.692Z,68.12
2019-04-23T20:22:00.573Z,68.49
2019-04-23T20:28:41.360Z,69.80
2019-04-23T20:35:13.115Z,70.29
2019-04-23T20:41:57.986Z,71.37
2019-04-23T20:44:53.528Z,71.66
2019-04-23T20:51:34.398Z,72.75
2019-04-23T20:58:39.441Z,74.55
2019-04-23T21:02:13.634Z,75.34
2019-04-23T21:05:16.251Z,76.31
2019-04-23T21:08:50.794Z,76.84
2019-04-23T21:11:48.715Z,77.14
2019-04-23T21:21:20.353Z,77.92
2019-04-23T21:24:27.406Z,77.86
2019-04-23T21:27:53.558Z,77.95
2019-04-23T21:34:07.828Z,78.54
2019-04-23T21:37:49.822Z,78.75
2019-04-23T21:41:16.862Z,79.10
2019-04-23T21:47:27.033Z,79.78
2019-04-23T21:57:02.702Z,81.47
2019-04-23T22:00:26.231Z,81.95
2019-04-23T22:04:01.681Z,82.33
2019-04-23T22:13:51.254Z,82.52
2019-04-23T22:16:37.214Z,83.26
2019-04-23T22:19:38.409Z,82.90
2019-04-23T22:22:57.212Z,83.01
2019-04-23T22:32:15.548Z,83.20
2019-04-23T22:35:57.389Z,83.19
2019-04-23T22:38:59.577Z,82.84
2019-04-23T22:42:58.813Z,82.97
2019-04-23T22:45:53.210Z,82.62
2019-04-23T22:55:49.373Z,82.42
2019-04-23T22:59:10.504Z,82.21
2019-04-23T23:02:27.011Z,82.28
2019-04-23T23:06:10.744Z,81.70
2019-04-23T23:09:34.272Z,82.07
2019-04-23T23:16:28.735Z,82.35
2019-04-23T23:26:12.903Z,81.57
2019-04-23T23:30:05.124Z,81.61
2019-04-23T23:33:11.023Z,81.63
2019-04-23T23:36:12.490Z,82.01
2019-04-23T23:46:09.726Z,82.13
2019-04-23T23:49:09.285Z,81.90
2019-04-23T23:52:33.177Z,81.71
2019-04-23T23:55:31.830Z,81.93
